createdAt,value
2022-07-29T00:01:44.935Z,2.40
2022-07-29T00:04:46.830Z,2.50
2022-07-29T00:07:48.780Z,2.00
2022-07-29T00:10:50.968Z,2.10
2022-07-29T00:13:52.929Z,2.50
2022-07-29T00:16:55.124Z,2.83
2022-07-29T00:19:57.089Z,2.27
2022-07-29T00:22:59.085Z,2.37
2022-07-29T00:26:01.054Z,2.33
2022-07-29T00:29:34.928Z,2.37
2022-07-29T00:32:26.934Z,2.90
2022-07-29T00:35:47.578Z,2.37
2022-07-29T00:38:53.400Z,2.27
2022-07-29T00:41:55.601Z,2.57
2022-07-29T00:44:57.805Z,2.30
2022-07-29T00:48:00.106Z,2.73
2022-07-29T00:51:03.990Z,2.77
2022-07-29T00:54:07.924Z,2.27
2022-07-29T00:57:10.295Z,2.57
2022-07-29T01:00:25.897Z,2.57
2022-07-29T01:03:28.545Z,2.67
2022-07-29T01:06:30.994Z,2.30
2022-07-29T01:09:34.983Z,2.20
2022-07-29T01:12:45.945Z,2.43
2022-07-29T01:15:54.035Z,2.40
2022-07-29T01:18:59.854Z,2.40
2022-07-29T01:22:31.065Z,2.60
2022-07-29T01:25:55.754Z,2.53
2022-07-29T01:29:06.075Z,2.50
2022-07-29T01:32:18.113Z,2.40
2022-07-29T01:35:38.018Z,2.30
2022-07-29T01:38:43.398Z,2.70
2022-07-29T01:41:51.814Z,2.50
2022-07-29T01:45:16.010Z,2.83
2022-07-29T01:48:22.449Z,2.23
2022-07-29T01:51:39.749Z,2.70
2022-07-29T01:54:46.723Z,2.63
2022-07-29T01:57:49.858Z,2.40
2022-07-29T02:00:53.279Z,3.30
2022-07-29T02:03:56.583Z,3.60
2022-07-29T02:07:08.089Z,2.70
2022-07-29T02:10:11.485Z,3.40
2022-07-29T02:13:15.460Z,2.60
2022-07-29T02:16:18.016Z,3.00
2022-07-29T02:19:21.677Z,3.00
2022-07-29T02:22:24.548Z,3.10
2022-07-29T02:25:37.565Z,2.90
2022-07-29T02:28:40.907Z,2.77
2022-07-29T02:31:44.805Z,2.80
2022-07-29T02:34:47.868Z,3.90
2022-07-29T02:38:09.439Z,2.83
2022-07-29T02:41:24.378Z,2.50
2022-07-29T02:44:31.252Z,2.90
2022-07-29T02:47:44.698Z,2.87
2022-07-29T02:50:52.300Z,2.77
2022-07-29T02:53:56.096Z,2.50
2022-07-29T02:57:00.773Z,3.07
2022-07-29T03:00:07.302Z,2.60
2022-07-29T03:03:14.307Z,2.37
2022-07-29T03:06:28.080Z,2.50
2022-07-29T03:09:39.296Z,2.63
2022-07-29T03:12:41.749Z,2.50
2022-07-29T03:15:44.955Z,2.73
2022-07-29T03:18:48.013Z,2.70
2022-07-29T03:21:50.501Z,2.33
2022-07-29T03:24:52.391Z,2.80
2022-07-29T03:27:56.361Z,2.50
2022-07-29T03:30:58.334Z,2.70
2022-07-29T03:34:01.182Z,2.67
2022-07-29T03:37:03.117Z,2.20
2022-07-29T03:40:08.620Z,2.40
2022-07-29T03:43:11.555Z,2.20
2022-07-29T03:46:15.373Z,2.50
2022-07-29T03:49:18.695Z,2.33
2022-07-29T03:52:22.203Z,2.37
2022-07-29T03:55:24.767Z,2.57
2022-07-29T03:58:28.872Z,2.50
2022-07-29T04:01:31.379Z,2.70
2022-07-29T04:04:36.273Z,2.50
2022-07-29T04:07:38.143Z,2.70
2022-07-29T04:10:40.205Z,2.60
2022-07-29T04:13:42.199Z,2.50
2022-07-29T04:16:44.153Z,2.30
2022-07-29T04:19:46.317Z,2.20
2022-07-29T04:22:48.263Z,2.40
2022-07-29T04:25:50.308Z,2.40
2022-07-29T04:28:52.354Z,2.47
2022-07-29T04:31:54.272Z,2.30
2022-07-29T04:34:56.279Z,2.40
2022-07-29T04:37:58.573Z,2.30
2022-07-29T04:41:00.503Z,2.87
2022-07-29T04:44:07.181Z,2.60
2022-07-29T04:47:10.207Z,2.63
2022-07-29T04:50:12.427Z,2.50
2022-07-29T04:53:14.425Z,2.67
2022-07-29T04:56:16.258Z,2.47
2022-07-29T04:59:18.217Z,2.30
2022-07-29T05:02:20.270Z,2.20
2022-07-29T05:05:22.327Z,3.00
2022-07-29T05:08:24.273Z,1.90
2022-07-29T05:11:30.254Z,2.60
2022-07-29T05:14:32.520Z,2.40
2022-07-29T05:17:35.356Z,2.53
2022-07-29T05:20:37.378Z,2.63
2022-07-29T05:23:39.383Z,2.67
2022-07-29T05:26:41.687Z,2.90
2022-07-29T05:29:45.751Z,2.27
2022-07-29T05:32:48.414Z,2.50
2022-07-29T05:35:50.781Z,2.60
2022-07-29T05:38:53.503Z,2.20
2022-07-29T05:41:55.519Z,2.40
2022-07-29T05:44:57.527Z,2.38
2022-07-29T05:47:59.481Z,2.40
2022-07-29T05:51:01.563Z,2.20
2022-07-29T05:54:03.912Z,2.20
2022-07-29T05:57:06.642Z,1.98
2022-07-29T06:00:09.302Z,1.70
2022-07-29T06:03:11.419Z,2.10
2022-07-29T06:06:13.539Z,1.73
2022-07-29T06:09:16.133Z,2.10
2022-07-29T06:12:18.109Z,2.00
2022-07-29T06:15:20.018Z,2.17
2022-07-29T06:18:24.932Z,2.05
2022-07-29T06:21:27.024Z,1.88
2022-07-29T06:24:29.357Z,1.95
2022-07-29T06:27:31.837Z,1.90
2022-07-29T06:30:34.307Z,1.90
2022-07-29T06:33:36.303Z,2.10
2022-07-29T06:36:39.789Z,2.00
2022-07-29T06:39:43.177Z,1.95
2022-07-29T06:42:45.600Z,1.50
2022-07-29T06:45:47.614Z,1.65
2022-07-29T06:48:50.200Z,1.50
2022-07-29T06:51:52.692Z,1.63
2022-07-29T06:54:56.422Z,1.73
2022-07-29T06:57:58.288Z,1.70
2022-07-29T07:01:03.001Z,1.80
2022-07-29T07:04:05.032Z,1.40
2022-07-29T07:07:07.014Z,1.95
2022-07-29T07:10:09.381Z,1.63
2022-07-29T07:13:11.421Z,1.50
2022-07-29T07:16:13.846Z,1.80
2022-07-29T07:19:15.882Z,1.50
2022-07-29T07:22:17.969Z,1.42
2022-07-29T07:25:20.140Z,1.45
2022-07-29T07:28:24.928Z,1.48
2022-07-29T07:31:27.628Z,1.70
2022-07-29T07:34:31.328Z,1.45
2022-07-29T07:37:34.039Z,1.60
2022-07-29T07:40:36.830Z,1.60
2022-07-29T07:43:39.189Z,1.40
2022-07-29T07:46:41.312Z,1.48
2022-07-29T07:49:44.211Z,1.30
2022-07-29T07:52:55.798Z,1.33
2022-07-29T07:56:13.403Z,1.50
2022-07-29T07:59:15.349Z,1.80
2022-07-29T08:02:17.505Z,1.60
2022-07-29T08:05:19.826Z,1.42
2022-07-29T08:08:22.297Z,1.65
2022-07-29T08:11:24.145Z,1.75
2022-07-29T08:14:26.422Z,1.30
2022-07-29T08:17:28.336Z,1.40
2022-07-29T08:20:31.106Z,1.70
2022-07-29T08:23:46.831Z,1.60
2022-07-29T08:26:51.062Z,1.55
2022-07-29T08:29:53.036Z,1.35
2022-07-29T08:32:55.990Z,1.48
2022-07-29T08:35:58.574Z,1.30
2022-07-29T08:39:01.326Z,1.25
2022-07-29T08:42:03.439Z,1.23
2022-07-29T08:45:06.648Z,1.27
2022-07-29T08:48:08.575Z,1.70
2022-07-29T08:51:18.227Z,1.42
2022-07-29T08:54:20.383Z,1.90
2022-07-29T08:57:23.389Z,1.40
2022-07-29T09:00:26.616Z,1.40
2022-07-29T09:03:32.809Z,1.20
2022-07-29T09:06:38.597Z,1.63
2022-07-29T09:09:41.472Z,1.65
2022-07-29T09:12:43.570Z,1.50
2022-07-29T09:15:46.261Z,2.20
2022-07-29T09:18:48.266Z,1.50
2022-07-29T09:21:59.153Z,2.30
2022-07-29T09:25:01.073Z,1.52
2022-07-29T09:28:20.543Z,1.27
2022-07-29T09:31:34.861Z,1.70
2022-07-29T09:34:36.877Z,1.40
2022-07-29T09:37:39.231Z,1.35
2022-07-29T09:40:41.674Z,1.33
2022-07-29T09:43:55.229Z,1.35
2022-07-29T09:47:00.716Z,1.58
2022-07-29T09:50:02.696Z,1.55
2022-07-29T09:53:05.290Z,1.48
2022-07-29T09:56:07.247Z,1.55
2022-07-29T09:59:10.533Z,1.85
2022-07-29T10:02:17.753Z,1.58
2022-07-29T10:05:36.541Z,1.50
2022-07-29T10:08:39.347Z,1.63
2022-07-29T10:11:56.954Z,1.63
2022-07-29T10:14:59.727Z,1.42
2022-07-29T10:18:02.042Z,1.23
2022-07-29T10:21:04.276Z,1.73
2022-07-29T10:24:07.843Z,1.77
2022-07-29T10:27:17.104Z,1.38
2022-07-29T10:30:19.942Z,1.65
2022-07-29T10:33:24.538Z,1.70
2022-07-29T10:36:43.216Z,1.70
2022-07-29T10:39:49.805Z,1.40
2022-07-29T10:42:54.128Z,1.90
2022-07-29T10:45:58.758Z,1.60
2022-07-29T10:49:08.352Z,1.33
2022-07-29T10:52:11.882Z,1.75
2022-07-29T10:55:37.888Z,1.60
2022-07-29T10:58:39.803Z,1.55
2022-07-29T11:01:50.343Z,1.83
2022-07-29T11:04:55.281Z,1.40
2022-07-29T11:08:26.442Z,1.58
2022-07-29T11:11:30.071Z,1.73
2022-07-29T11:14:53.562Z,1.65
2022-07-29T11:17:55.419Z,1.70
2022-07-29T11:21:01.784Z,1.50
2022-07-29T11:24:35.343Z,1.58
2022-07-29T11:27:40.747Z,1.65
2022-07-29T11:30:53.792Z,1.40
2022-07-29T11:33:56.987Z,1.67
2022-07-29T11:37:10.814Z,1.85
2022-07-29T11:40:17.339Z,1.55
2022-07-29T11:43:50.632Z,1.73
2022-07-29T11:46:53.872Z,1.75
2022-07-29T11:50:00.893Z,1.88
2022-07-29T11:53:14.390Z,1.70
2022-07-29T11:56:18.379Z,1.80
2022-07-29T11:59:20.988Z,1.38
2022-07-29T12:02:37.177Z,1.60
2022-07-29T12:05:47.889Z,1.58
2022-07-29T12:08:50.443Z,1.80
2022-07-29T12:12:03.291Z,1.77
2022-07-29T12:15:20.358Z,1.45
2022-07-29T12:18:23.942Z,1.48
2022-07-29T12:21:27.081Z,1.65
2022-07-29T12:24:45.008Z,1.83
2022-07-29T12:27:47.224Z,1.30
2022-07-29T12:30:51.713Z,1.67
2022-07-29T12:33:55.380Z,1.77
2022-07-29T12:36:59.668Z,1.67
2022-07-29T12:40:02.223Z,1.77
2022-07-29T12:43:21.290Z,1.70
2022-07-29T12:46:24.175Z,1.73
2022-07-29T12:49:26.174Z,1.83
2022-07-29T12:52:34.002Z,1.80
2022-07-29T12:55:52.657Z,1.55
2022-07-29T12:58:55.187Z,1.50
2022-07-29T13:01:57.523Z,1.55
2022-07-29T13:05:00.960Z,1.45
2022-07-29T13:08:20.431Z,1.20
2022-07-29T13:11:51.301Z,1.30
2022-07-29T13:14:53.195Z,1.60
2022-07-29T13:17:55.267Z,1.70
2022-07-29T13:20:58.163Z,1.20
2022-07-29T13:24:01.508Z,1.85
2022-07-29T13:27:05.522Z,1.33
2022-07-29T13:30:10.231Z,1.30
2022-07-29T13:33:12.118Z,1.63
2022-07-29T13:36:14.283Z,1.50
2022-07-29T13:39:16.232Z,1.60
2022-07-29T13:42:18.147Z,1.30
2022-07-29T13:45:20.179Z,1.25
2022-07-29T13:48:22.227Z,1.20
2022-07-29T13:51:24.098Z,1.50
2022-07-29T13:54:26.402Z,1.30
2022-07-29T13:57:30.453Z,1.60
2022-07-29T14:00:32.745Z,1.40
2022-07-29T14:03:34.988Z,1.38
2022-07-29T14:06:38.659Z,1.23
2022-07-29T14:09:42.643Z,1.70
2022-07-29T14:12:44.581Z,1.58
2022-07-29T14:15:46.518Z,1.38
2022-07-29T14:18:48.918Z,1.40
2022-07-29T14:21:50.825Z,1.90
2022-07-29T14:24:53.586Z,1.30
2022-07-29T14:27:55.719Z,1.25
2022-07-29T14:31:03.821Z,1.58
2022-07-29T14:34:05.878Z,1.45
2022-07-29T14:37:08.293Z,1.45
2022-07-29T14:40:11.038Z,1.48
2022-07-29T14:43:12.943Z,1.70
2022-07-29T14:46:15.510Z,1.85
2022-07-29T14:49:17.671Z,1.75
2022-07-29T14:52:19.753Z,1.40
2022-07-29T14:55:21.832Z,1.50
2022-07-29T14:58:23.902Z,1.52
2022-07-29T15:01:26.535Z,1.50
2022-07-29T15:04:28.468Z,1.40
2022-07-29T15:07:30.453Z,1.40
2022-07-29T15:10:32.558Z,1.27
2022-07-29T15:13:35.233Z,1.90
2022-07-29T15:16:38.263Z,1.30
2022-07-29T15:19:44.812Z,1.30
2022-07-29T15:22:47.196Z,1.65
2022-07-29T15:25:49.121Z,1.50
2022-07-29T15:28:51.195Z,1.70
2022-07-29T15:31:53.270Z,1.67
2022-07-29T15:34:55.173Z,1.80
2022-07-29T15:37:57.147Z,1.77
2022-07-29T15:40:58.996Z,1.60
2022-07-29T15:44:00.891Z,1.50
2022-07-29T15:47:08.597Z,1.50
2022-07-29T15:50:16.395Z,1.30
2022-07-29T15:53:18.632Z,1.52
2022-07-29T15:56:20.698Z,1.70
2022-07-29T15:59:23.355Z,1.80
2022-07-29T16:02:25.323Z,1.60
2022-07-29T16:05:30.015Z,1.33
2022-07-29T16:08:34.350Z,1.60
2022-07-29T16:11:36.849Z,1.40
2022-07-29T16:14:38.826Z,1.80
2022-07-29T16:17:40.795Z,1.63
2022-07-29T16:20:42.918Z,2.05
2022-07-29T16:23:45.483Z,2.60
2022-07-29T16:26:47.397Z,2.30
2022-07-29T16:29:50.560Z,1.60
2022-07-29T16:32:52.486Z,1.60
2022-07-29T16:35:54.467Z,2.33
2022-07-29T16:38:56.663Z,3.28
2022-07-29T16:42:01.507Z,3.17
2022-07-29T16:45:05.742Z,1.90
2022-07-29T16:48:07.812Z,1.63
2022-07-29T16:51:10.367Z,2.17
2022-07-29T16:54:16.294Z,2.00
2022-07-29T16:57:19.468Z,1.77
2022-07-29T17:00:21.878Z,1.80
2022-07-29T17:03:23.859Z,1.80
2022-07-29T17:06:25.788Z,2.53
2022-07-29T17:09:27.928Z,2.22
2022-07-29T17:12:30.124Z,1.80
2022-07-29T17:15:32.227Z,2.05
2022-07-29T17:18:38.781Z,2.10
2022-07-29T17:21:46.713Z,2.03
2022-07-29T17:24:51.663Z,2.00
2022-07-29T17:27:56.427Z,3.00
2022-07-29T17:31:02.469Z,2.40
2022-07-29T17:34:07.118Z,2.50
2022-07-29T17:37:10.898Z,2.30
2022-07-29T17:40:12.865Z,2.72
2022-07-29T17:43:15.006Z,2.97
2022-07-29T17:46:17.678Z,2.90
2022-07-29T17:49:19.655Z,2.63
2022-07-29T17:52:21.999Z,3.25
2022-07-29T17:55:23.992Z,3.47
2022-07-29T17:58:26.343Z,2.70
2022-07-29T18:01:28.826Z,3.05
2022-07-29T18:04:49.670Z,4.13
2022-07-29T18:07:53.330Z,3.50
2022-07-29T18:10:55.270Z,3.80
2022-07-29T18:13:57.245Z,3.58
2022-07-29T18:16:59.622Z,3.67
2022-07-29T18:20:02.101Z,3.70
2022-07-29T18:23:04.230Z,3.85
2022-07-29T18:26:06.091Z,5.22
2022-07-29T18:29:09.290Z,4.22
2022-07-29T18:32:15.619Z,3.97
2022-07-29T18:35:18.177Z,5.05
2022-07-29T18:38:21.188Z,4.03
2022-07-29T18:41:23.513Z,6.00
2022-07-29T18:44:25.464Z,3.75
2022-07-29T18:47:32.190Z,4.22
2022-07-29T18:50:36.493Z,4.40
2022-07-29T18:53:38.853Z,3.95
2022-07-29T18:56:41.082Z,3.38
2022-07-29T18:59:44.083Z,3.50
2022-07-29T19:02:46.119Z,3.78
2022-07-29T19:05:49.023Z,3.67
2022-07-29T19:08:52.447Z,3.75
2022-07-29T19:11:56.753Z,4.22
2022-07-29T19:14:59.859Z,4.65
2022-07-29T19:18:02.588Z,4.82
2022-07-29T19:21:04.643Z,3.65
2022-07-29T19:24:12.393Z,3.60
2022-07-29T19:27:17.840Z,3.33
2022-07-29T19:30:19.784Z,2.45
2022-07-29T19:33:21.784Z,2.28
2022-07-29T19:36:23.793Z,2.13
2022-07-29T19:39:35.302Z,2.70
2022-07-29T19:42:37.779Z,2.30
2022-07-29T19:45:39.849Z,2.25
2022-07-29T19:48:41.881Z,2.20
2022-07-29T19:51:44.393Z,2.20
2022-07-29T19:54:46.659Z,2.28
2022-07-29T19:57:48.603Z,2.22
2022-07-29T20:00:50.700Z,2.50
2022-07-29T20:03:54.034Z,2.20
2022-07-29T20:07:02.030Z,2.28
2022-07-29T20:10:05.298Z,2.35
2022-07-29T20:13:07.219Z,2.63
2022-07-29T20:16:09.294Z,2.10
2022-07-29T20:19:12.233Z,2.30
2022-07-29T20:22:14.785Z,2.00
2022-07-29T20:25:24.130Z,2.60
2022-07-29T20:28:26.085Z,2.70
2022-07-29T20:31:29.479Z,2.90
2022-07-29T20:34:31.808Z,2.33
2022-07-29T20:37:33.878Z,2.47
2022-07-29T20:40:58.681Z,2.47
2022-07-29T20:44:03.820Z,2.13
2022-07-29T20:47:05.884Z,2.53
2022-07-29T20:50:10.179Z,2.57
2022-07-29T20:53:12.393Z,1.93
2022-07-29T20:56:14.299Z,1.80
2022-07-29T20:59:17.677Z,1.73
2022-07-29T21:02:19.844Z,1.83
2022-07-29T21:05:24.934Z,1.70
2022-07-29T21:08:27.383Z,1.93
2022-07-29T21:11:43.547Z,2.13
2022-07-29T21:14:46.740Z,2.10
2022-07-29T21:17:48.871Z,2.10
2022-07-29T21:20:50.918Z,2.27
2022-07-29T21:23:53.445Z,2.40
2022-07-29T21:27:21.298Z,2.60
2022-07-29T21:30:23.626Z,2.13
2022-07-29T21:33:27.646Z,1.80
2022-07-29T21:36:47.942Z,2.00
2022-07-29T21:39:50.614Z,2.27
2022-07-29T21:42:53.025Z,1.97
2022-07-29T21:46:04.737Z,2.10
2022-07-29T21:49:09.222Z,2.00
2022-07-29T21:52:11.450Z,2.33
2022-07-29T21:55:14.284Z,2.20
2022-07-29T21:58:16.639Z,1.50
2022-07-29T22:01:18.581Z,1.60
2022-07-29T22:04:20.640Z,1.73
2022-07-29T22:07:22.607Z,1.80
2022-07-29T22:10:26.474Z,2.00
2022-07-29T22:13:28.319Z,2.07
2022-07-29T22:16:30.735Z,1.70
2022-07-29T22:19:32.728Z,2.30
2022-07-29T22:22:34.829Z,2.37
2022-07-29T22:25:36.694Z,1.70
2022-07-29T22:28:38.671Z,2.10
2022-07-29T22:31:42.395Z,1.70
2022-07-29T22:34:44.694Z,2.23
2022-07-29T22:37:46.570Z,2.47
2022-07-29T22:40:50.598Z,3.00
2022-07-29T22:43:52.694Z,2.87
2022-07-29T22:46:56.209Z,2.77
2022-07-29T22:49:58.129Z,2.57
2022-07-29T22:53:00.441Z,2.40
2022-07-29T22:56:02.579Z,2.03
2022-07-29T22:59:04.548Z,1.60
2022-07-29T23:02:06.439Z,2.40
2022-07-29T23:05:10.513Z,2.10
2022-07-29T23:08:12.584Z,1.87
2022-07-29T23:11:15.144Z,2.40
2022-07-29T23:14:17.300Z,1.90
2022-07-29T23:17:19.345Z,2.17
2022-07-29T23:20:21.301Z,2.50
2022-07-29T23:23:23.609Z,2.27
2022-07-29T23:26:25.875Z,2.37
2022-07-29T23:29:27.781Z,2.30
2022-07-29T23:32:29.661Z,2.30
2022-07-29T23:35:32.175Z,2.43
2022-07-29T23:38:34.126Z,2.53
2022-07-29T23:41:38.353Z,2.53
2022-07-29T23:44:40.224Z,2.33
2022-07-29T23:47:42.819Z,2.43
2022-07-29T23:50:44.873Z,2.27
2022-07-29T23:53:54.031Z,2.57
2022-07-29T23:56:58.101Z,2.60
